SCSQ weather

Quilpe Airport
San Pablo, Los Lagos Region, Chile

Public forecast

Using degrees Celsius for public forecast. Weather courtesy of forecast.io.

Closest aviation weather report (METAR) to Quilpe Airport

Closest report is Cañal Bajo Carlos - Hott Siebert Airport, 20.0 nm (37.0 km) SE. Retrieved 2020/02/26 17:00 UTC (42 minutes ago):

SCJO 261700Z 19008KT 9999 BKN020 17/11 Q1020

Closest aviation forecast (TAF) to Quilpe Airport

Closest forecast is Cañal Bajo Carlos - Hott Siebert Airport, 20.0 nm (37.0 km) SE. Retrieved 2020/02/26 12:33 UTC (5 hours ago):

TAF SCJO 261033Z 2612/2624 17009KT 9999 BKN010 TN09/2612Z TX21/2620Z BECMG 2618/2620 CAVOK